createdAt,value
2022-08-26T00:02:15.462Z,21.52
2022-08-26T00:05:40.573Z,21.51
2022-08-26T00:09:07.658Z,21.49
2022-08-26T00:12:36.098Z,21.469999
2022-08-26T00:15:56.135Z,21.459999
2022-08-26T00:19:21.350Z,21.450001
2022-08-26T00:22:46.465Z,21.42
2022-08-26T00:26:11.631Z,21.41
2022-08-26T00:29:37.552Z,21.4
2022-08-26T00:33:02.026Z,21.42
2022-08-26T00:36:29.629Z,21.450001
2022-08-26T00:39:52.375Z,21.440001
2022-08-26T00:43:17.559Z,21.440001
2022-08-26T00:46:46.378Z,21.42
2022-08-26T00:50:07.910Z,21.41
2022-08-26T00:53:33.110Z,21.389999
2022-08-26T00:56:59.826Z,21.360001
2022-08-26T01:00:23.569Z,21.32
2022-08-26T01:03:48.762Z,21.299999
2022-08-26T01:07:13.977Z,21.280001
2022-08-26T01:10:39.208Z,21.280001
2022-08-26T01:14:04.417Z,21.26
2022-08-26T01:17:29.682Z,21.26
2022-08-26T01:20:57.623Z,21.23
2022-08-26T01:24:19.979Z,21.219999
2022-08-26T01:27:45.143Z,21.200001
2022-08-26T01:31:10.317Z,21.200001
2022-08-26T01:34:35.466Z,21.209999
2022-08-26T01:38:00.651Z,21.209999
2022-08-26T01:41:27.377Z,21.18
2022-08-26T01:44:51.011Z,21.18
2022-08-26T01:48:16.230Z,21.16
2022-08-26T01:51:41.393Z,21.15
2022-08-26T01:55:06.560Z,21.120001
2022-08-26T01:58:31.767Z,21.1
2022-08-26T02:01:56.948Z,21.09
2022-08-26T02:05:22.105Z,21.1
2022-08-26T02:08:47.303Z,21.120001
2022-08-26T02:12:12.529Z,21.129999
2022-08-26T02:15:37.747Z,21.139999
2022-08-26T02:19:02.950Z,21.139999
2022-08-26T02:22:28.171Z,21.129999
2022-08-26T02:25:53.342Z,21.139999
2022-08-26T02:29:18.482Z,21.16
2022-08-26T02:32:43.654Z,21.17
2022-08-26T02:36:08.825Z,21.17
2022-08-26T02:39:34.012Z,21.16
2022-08-26T02:42:59.213Z,21.16
2022-08-26T02:46:27.754Z,21.129999
2022-08-26T02:49:49.616Z,21.15
2022-08-26T02:53:14.793Z,21.139999
2022-08-26T02:56:39.984Z,21.139999
2022-08-26T03:00:05.172Z,21.110001
2022-08-26T03:03:30.347Z,21.1
2022-08-26T03:06:55.635Z,21.08
2022-08-26T03:10:20.772Z,21.049999
2022-08-26T03:13:45.929Z,20.969999
2022-08-26T03:17:11.150Z,20.92
2022-08-26T03:20:36.337Z,20.889999
2022-08-26T03:24:01.538Z,20.860001
2022-08-26T03:27:26.709Z,20.83
2022-08-26T03:30:51.933Z,20.790001
2022-08-26T03:34:17.174Z,20.76
2022-08-26T03:37:42.394Z,20.76
2022-08-26T03:41:08.136Z,20.73
2022-08-26T03:44:34.830Z,20.700001
2022-08-26T03:48:02.748Z,20.639999
2022-08-26T03:51:27.954Z,20.610001
2022-08-26T03:54:53.130Z,20.610001
2022-08-26T03:58:18.334Z,20.639999
2022-08-26T04:01:43.555Z,20.639999
2022-08-26T04:05:08.742Z,20.620001
2022-08-26T04:08:33.970Z,20.59
2022-08-26T04:11:59.114Z,20.559999
2022-08-26T04:15:24.366Z,20.559999
2022-08-26T04:18:49.545Z,20.549999
2022-08-26T04:22:14.740Z,20.559999
2022-08-26T04:25:39.984Z,20.559999
2022-08-26T04:29:05.178Z,20.57
2022-08-26T04:32:30.419Z,20.59
2022-08-26T04:35:55.648Z,20.610001
2022-08-26T04:39:20.882Z,20.629999
2022-08-26T04:42:46.140Z,20.65
2022-08-26T04:46:12.892Z,20.690001
2022-08-26T04:49:39.218Z,20.709999
2022-08-26T04:53:05.484Z,20.75
2022-08-26T04:56:30.719Z,20.82
2022-08-26T04:59:55.916Z,20.870001
2022-08-26T05:03:21.148Z,20.91
2022-08-26T05:06:46.356Z,20.940001
2022-08-26T05:10:11.573Z,20.98
2022-08-26T05:13:36.776Z,20.98
2022-08-26T05:17:01.999Z,21.040001
2022-08-26T05:20:27.231Z,21.049999
2022-08-26T05:23:52.450Z,21.110001
2022-08-26T05:27:17.675Z,21.209999
2022-08-26T05:30:42.924Z,21.280001
2022-08-26T05:34:08.517Z,21.360001
2022-08-26T05:37:33.348Z,21.42
2022-08-26T05:40:58.540Z,21.459999
2022-08-26T05:44:23.782Z,21.51
2022-08-26T05:47:48.973Z,21.549999
2022-08-26T05:51:14.184Z,21.58
2022-08-26T05:54:39.412Z,21.639999
2022-08-26T05:58:04.615Z,21.690001
2022-08-26T06:01:29.903Z,21.76
2022-08-26T06:04:55.062Z,21.83
2022-08-26T06:08:20.281Z,21.92
2022-08-26T06:11:45.513Z,22.049999
2022-08-26T06:15:10.721Z,22.18
2022-08-26T06:18:35.914Z,22.309999
2022-08-26T06:22:01.134Z,22.43
2022-08-26T06:25:26.365Z,22.549999
2022-08-26T06:28:51.572Z,22.700001
2022-08-26T06:32:16.775Z,22.84
2022-08-26T06:35:41.969Z,22.950001
2022-08-26T06:39:07.161Z,23.07
2022-08-26T06:42:32.361Z,23.15
2022-08-26T06:45:57.635Z,23.24
2022-08-26T06:49:25.901Z,23.32
2022-08-26T06:52:48.030Z,23.379999
2022-08-26T06:56:13.212Z,23.42
2022-08-26T06:59:38.408Z,23.469999
2022-08-26T07:03:03.721Z,23.51
2022-08-26T07:06:28.923Z,23.549999
2022-08-26T07:09:54.149Z,23.610001
2022-08-26T07:13:30.019Z,23.690001
2022-08-26T07:16:44.599Z,23.790001
2022-08-26T07:20:09.824Z,23.950001
2022-08-26T07:23:35.070Z,24.120001
2022-08-26T07:27:00.276Z,24.27
2022-08-26T07:30:25.511Z,24.41
2022-08-26T07:33:50.743Z,24.549999
2022-08-26T07:37:16.008Z,24.66
2022-08-26T07:40:41.236Z,24.75
2022-08-26T07:44:06.461Z,24.809999
2022-08-26T07:47:31.710Z,24.860001
2022-08-26T07:50:56.928Z,24.889999
2022-08-26T07:54:26.721Z,24.940001
2022-08-26T07:57:47.378Z,24.98
2022-08-26T08:01:12.628Z,25.040001
2022-08-26T08:04:37.868Z,25.139999
2022-08-26T08:08:26.483Z,25.200001
2022-08-26T08:11:28.302Z,25.290001
2022-08-26T08:14:53.510Z,25.34
2022-08-26T08:18:20.427Z,25.389999
2022-08-26T08:21:43.864Z,25.42
2022-08-26T08:25:10.471Z,25.42
2022-08-26T08:28:34.288Z,25.459999
2022-08-26T08:31:59.858Z,25.530001
2022-08-26T08:35:24.753Z,25.559999
2022-08-26T08:38:50.003Z,25.59
2022-08-26T08:42:15.247Z,25.610001
2022-08-26T08:45:40.586Z,25.639999
2022-08-26T08:49:05.767Z,25.690001
2022-08-26T08:52:31.025Z,25.780001
2022-08-26T08:55:56.255Z,25.84
2022-08-26T08:59:21.501Z,25.92
2022-08-26T09:02:46.831Z,26.01
2022-08-26T09:06:11.974Z,26.1
2022-08-26T09:09:37.217Z,26.200001
2022-08-26T09:13:02.686Z,26.280001
2022-08-26T09:16:27.997Z,26.34
2022-08-26T09:19:53.199Z,26.370001
2022-08-26T09:23:18.461Z,26.379999
2022-08-26T09:26:43.711Z,26.41
2022-08-26T09:30:11.296Z,26.5
2022-08-26T09:33:34.179Z,26.610001
2022-08-26T09:36:59.427Z,26.780001
2022-08-26T09:40:24.693Z,26.950001
2022-08-26T09:43:49.867Z,27.139999
2022-08-26T09:47:15.115Z,27.26
2022-08-26T09:50:40.342Z,27.370001
2022-08-26T09:54:08.167Z,27.42
2022-08-26T09:57:30.853Z,27.49
2022-08-26T10:00:56.140Z,27.49
2022-08-26T10:04:21.419Z,27.530001
2022-08-26T10:07:46.560Z,27.58
2022-08-26T10:11:11.794Z,27.620001
2022-08-26T10:18:09.494Z,27.860001
2022-08-26T10:21:34.561Z,27.92
2022-08-26T10:24:59.802Z,27.91
2022-08-26T10:28:25.046Z,27.9
2022-08-26T10:31:51.370Z,27.790001
2022-08-26T10:35:15.497Z,27.629999
2022-08-26T10:38:40.701Z,27.469999
2022-08-26T10:42:05.935Z,27.32
2022-08-26T10:45:31.174Z,27.18
2022-08-26T10:48:56.412Z,27.09
2022-08-26T10:52:21.669Z,27
2022-08-26T10:55:46.913Z,26.93
2022-08-26T10:59:12.384Z,26.84
2022-08-26T12:57:20.936Z,26.99
2022-08-26T13:00:46.687Z,27
2022-08-26T13:04:11.835Z,27
2022-08-26T13:07:37.604Z,26.98
2022-08-26T13:11:02.916Z,26.93
2022-08-26T13:14:28.167Z,26.959999
2022-08-26T13:17:53.461Z,26.99
2022-08-26T13:21:18.695Z,27.01
2022-08-26T13:24:43.962Z,27.040001
2022-08-26T13:28:09.189Z,27.07
2022-08-26T13:31:34.484Z,27.1
2022-08-26T13:34:59.709Z,27.139999
2022-08-26T13:38:33.542Z,27.17
2022-08-26T13:41:50.187Z,27.209999
2022-08-26T13:45:15.419Z,27.219999
2022-08-26T13:48:41.112Z,27.24
2022-08-26T13:52:05.917Z,27.280001
2022-08-26T13:55:31.479Z,27.309999
2022-08-26T13:59:00.678Z,27.379999
2022-08-26T14:02:26.296Z,27.48
2022-08-26T14:05:51.547Z,27.530001
2022-08-26T14:09:16.851Z,27.52
2022-08-26T14:12:42.081Z,27.549999
2022-08-26T14:16:07.375Z,27.620001
2022-08-26T14:19:32.578Z,27.690001
2022-08-26T14:23:12.900Z,27.790001
2022-08-26T14:26:27.995Z,27.85
2022-08-26T14:29:48.357Z,27.889999
2022-08-26T15:05:25.599Z,25.16
2022-08-26T15:08:50.819Z,26.040001
2022-08-26T15:12:16.070Z,26.200001
2022-08-26T15:15:41.339Z,26.34
2022-08-26T15:19:06.535Z,26.440001
2022-08-26T15:22:31.781Z,26.450001
2022-08-26T15:25:57.009Z,26.440001
2022-08-26T15:29:22.247Z,26.41
